sensor_id;sensor_type;location;lat;lon;timestamp;temperature;humidity
9043;DHT22;4556;49.150;8.808;2023-06-22T00:01:21;20.20;99.90
9043;DHT22;4556;49.150;8.808;2023-06-22T00:03:47;20.20;99.90
9043;DHT22;4556;49.150;8.808;2023-06-22T00:06:15;20.20;99.90
9043;DHT22;4556;49.150;8.808;2023-06-22T00:08:42;20.20;99.90
9043;DHT22;4556;49.150;8.808;2023-06-22T00:11:09;20.20;99.90
9043;DHT22;4556;49.150;8.808;2023-06-22T00:13:37;20.20;99.90
9043;DHT22;4556;49.150;8.808;2023-06-22T00:16:05;20.10;99.90
9043;DHT22;4556;49.150;8.808;2023-06-22T00:18:32;20.00;99.90
9043;DHT22;4556;49.150;8.808;2023-06-22T00:20:59;19.90;99.90
9043;DHT22;4556;49.150;8.808;2023-06-22T00:23:26;19.80;99.90
9043;DHT22;4556;49.150;8.808;2023-06-22T00:25:54;20.40;99.90
9043;DHT22;4556;49.150;8.808;2023-06-22T00:28:21;19.80;99.90
9043;DHT22;4556;49.150;8.808;2023-06-22T00:30:49;19.80;99.90
9043;DHT22;4556;49.150;8.808;2023-06-22T00:33:16;19.80;99.90
9043;DHT22;4556;49.150;8.808;2023-06-22T00:35:43;19.70;99.90
9043;DHT22;4556;49.150;8.808;2023-06-22T00:38:11;19.70;99.90
9043;DHT22;4556;49.150;8.808;2023-06-22T00:40:38;19.70;99.90
9043;DHT22;4556;49.150;8.808;2023-06-22T00:43:05;20.10;99.90
9043;DHT22;4556;49.150;8.808;2023-06-22T00:45:32;19.80;99.90
9043;DHT22;4556;49.150;8.808;2023-06-22T00:48:01;19.70;99.90
9043;DHT22;4556;49.150;8.808;2023-06-22T00:50:30;19.70;99.90
9043;DHT22;4556;49.150;8.808;2023-06-22T00:53:00;19.90;99.90
9043;DHT22;4556;49.150;8.808;2023-06-22T00:55:28;19.90;99.90
9043;DHT22;4556;49.150;8.808;2023-06-22T00:57:55;20.10;99.90
9043;DHT22;4556;49.150;8.808;2023-06-22T01:00:23;20.10;99.90
9043;DHT22;4556;49.150;8.808;2023-06-22T01:02:51;20.10;99.90
9043;DHT22;4556;49.150;8.808;2023-06-22T01:05:22;19.90;99.90
9043;DHT22;4556;49.150;8.808;2023-06-22T01:08:00;19.70;99.90
9043;DHT22;4556;49.150;8.808;2023-06-22T01:10:34;19.60;99.90
9043;DHT22;4556;49.150;8.808;2023-06-22T01:13:07;19.60;99.90
9043;DHT22;4556;49.150;8.808;2023-06-22T01:15:41;19.40;99.90
9043;DHT22;4556;49.150;8.808;2023-06-22T01:18:12;19.30;99.90
9043;DHT22;4556;49.150;8.808;2023-06-22T01:20:41;19.20;99.90
9043;DHT22;4556;49.150;8.808;2023-06-22T01:23:15;19.20;99.90
9043;DHT22;4556;49.150;8.808;2023-06-22T01:25:46;19.00;99.90
9043;DHT22;4556;49.150;8.808;2023-06-22T01:31:16;19.10;99.90
9043;DHT22;4556;49.150;8.808;2023-06-22T01:33:47;19.20;99.90
9043;DHT22;4556;49.150;8.808;2023-06-22T01:36:17;19.10;99.90
9043;DHT22;4556;49.150;8.808;2023-06-22T01:38:44;19.10;99.90
9043;DHT22;4556;49.150;8.808;2023-06-22T01:41:12;19.00;99.90
9043;DHT22;4556;49.150;8.808;2023-06-22T01:43:40;19.00;99.90
9043;DHT22;4556;49.150;8.808;2023-06-22T01:46:08;19.10;99.90
9043;DHT22;4556;49.150;8.808;2023-06-22T01:48:37;19.00;99.90
9043;DHT22;4556;49.150;8.808;2023-06-22T01:51:05;18.90;99.90
9043;DHT22;4556;49.150;8.808;2023-06-22T01:53:32;18.90;99.90
9043;DHT22;4556;49.150;8.808;2023-06-22T01:56:00;18.90;99.90
9043;DHT22;4556;49.150;8.808;2023-06-22T01:58:29;18.70;99.90
9043;DHT22;4556;49.150;8.808;2023-06-22T02:01:00;18.70;99.90
9043;DHT22;4556;49.150;8.808;2023-06-22T02:03:38;18.60;99.90
9043;DHT22;4556;49.150;8.808;2023-06-22T02:06:11;18.60;99.90
9043;DHT22;4556;49.150;8.808;2023-06-22T02:08:46;18.70;99.90
9043;DHT22;4556;49.150;8.808;2023-06-22T02:11:15;18.70;99.90
9043;DHT22;4556;49.150;8.808;2023-06-22T02:13:44;18.70;99.90
9043;DHT22;4556;49.150;8.808;2023-06-22T02:16:12;18.60;99.90
9043;DHT22;4556;49.150;8.808;2023-06-22T02:18:46;18.50;99.90
9043;DHT22;4556;49.150;8.808;2023-06-22T02:21:14;18.40;99.90
9043;DHT22;4556;49.150;8.808;2023-06-22T02:23:41;19.50;99.90
9043;DHT22;4556;49.150;8.808;2023-06-22T02:26:09;18.20;99.90
9043;DHT22;4556;49.150;8.808;2023-06-22T02:28:36;18.70;99.90
9043;DHT22;4556;49.150;8.808;2023-06-22T02:31:03;18.40;99.90
9043;DHT22;4556;49.150;8.808;2023-06-22T02:33:30;18.40;99.90
9043;DHT22;4556;49.150;8.808;2023-06-22T02:35:59;18.90;99.90
9043;DHT22;4556;49.150;8.808;2023-06-22T02:38:31;18.70;99.90
9043;DHT22;4556;49.150;8.808;2023-06-22T02:41:00;18.30;99.90
9043;DHT22;4556;49.150;8.808;2023-06-22T02:43:27;18.30;99.90
9043;DHT22;4556;49.150;8.808;2023-06-22T02:45:54;18.30;99.90
9043;DHT22;4556;49.150;8.808;2023-06-22T02:48:22;18.00;99.90
9043;DHT22;4556;49.150;8.808;2023-06-22T02:50:49;18.00;99.90
9043;DHT22;4556;49.150;8.808;2023-06-22T02:53:17;18.50;99.90
9043;DHT22;4556;49.150;8.808;2023-06-22T02:55:45;18.50;99.90
9043;DHT22;4556;49.150;8.808;2023-06-22T02:58:12;18.00;99.90
9043;DHT22;4556;49.150;8.808;2023-06-22T03:00:39;18.00;99.90
9043;DHT22;4556;49.150;8.808;2023-06-22T03:03:06;18.50;99.90
9043;DHT22;4556;49.150;8.808;2023-06-22T03:05:33;17.80;99.90
9043;DHT22;4556;49.150;8.808;2023-06-22T03:08:00;17.90;99.90
9043;DHT22;4556;49.150;8.808;2023-06-22T03:10:29;18.00;99.90
9043;DHT22;4556;49.150;8.808;2023-06-22T03:12:56;18.50;99.90
9043;DHT22;4556;49.150;8.808;2023-06-22T03:15:23;17.80;99.90
9043;DHT22;4556;49.150;8.808;2023-06-22T03:17:51;18.00;99.90
9043;DHT22;4556;49.150;8.808;2023-06-22T03:20:18;17.80;99.90
9043;DHT22;4556;49.150;8.808;2023-06-22T03:22:45;17.70;99.90
9043;DHT22;4556;49.150;8.808;2023-06-22T03:25:12;17.70;99.90
9043;DHT22;4556;49.150;8.808;2023-06-22T03:27:42;17.80;99.90
9043;DHT22;4556;49.150;8.808;2023-06-22T03:30:10;18.40;99.90
9043;DHT22;4556;49.150;8.808;2023-06-22T03:32:37;17.80;99.90
9043;DHT22;4556;49.150;8.808;2023-06-22T03:35:05;17.70;99.90
9043;DHT22;4556;49.150;8.808;2023-06-22T03:37:32;17.70;99.90
9043;DHT22;4556;49.150;8.808;2023-06-22T03:39:59;17.60;99.90
9043;DHT22;4556;49.150;8.808;2023-06-22T03:42:26;17.70;99.90
9043;DHT22;4556;49.150;8.808;2023-06-22T03:44:55;18.00;99.90
9043;DHT22;4556;49.150;8.808;2023-06-22T03:47:22;17.90;99.90
9043;DHT22;4556;49.150;8.808;2023-06-22T03:49:49;17.80;99.90
9043;DHT22;4556;49.150;8.808;2023-06-22T03:52:20;17.70;99.90
9043;DHT22;4556;49.150;8.808;2023-06-22T03:54:47;17.80;99.90
9043;DHT22;4556;49.150;8.808;2023-06-22T03:57:14;17.80;99.90
9043;DHT22;4556;49.150;8.808;2023-06-22T03:59:41;17.70;99.90
9043;DHT22;4556;49.150;8.808;2023-06-22T04:02:10;17.70;99.90
9043;DHT22;4556;49.150;8.808;2023-06-22T04:04:37;17.70;99.90
9043;DHT22;4556;49.150;8.808;2023-06-22T04:07:04;17.70;99.90
9043;DHT22;4556;49.150;8.808;2023-06-22T04:09:32;17.80;99.90
9043;DHT22;4556;49.150;8.808;2023-06-22T04:11:59;17.80;99.90
9043;DHT22;4556;49.150;8.808;2023-06-22T04:14:26;17.90;99.90
9043;DHT22;4556;49.150;8.808;2023-06-22T04:16:53;18.00;99.90
9043;DHT22;4556;49.150;8.808;2023-06-22T04:19:21;17.90;99.90
9043;DHT22;4556;49.150;8.808;2023-06-22T04:21:48;17.90;99.90
9043;DHT22;4556;49.150;8.808;2023-06-22T04:24:15;18.10;99.90
9043;DHT22;4556;49.150;8.808;2023-06-22T04:26:42;18.00;99.90
9043;DHT22;4556;49.150;8.808;2023-06-22T04:29:11;19.30;99.90
9043;DHT22;4556;49.150;8.808;2023-06-22T04:31:38;18.60;99.90
9043;DHT22;4556;49.150;8.808;2023-06-22T04:34:07;18.30;99.90
9043;DHT22;4556;49.150;8.808;2023-06-22T04:36:38;18.40;99.90
9043;DHT22;4556;49.150;8.808;2023-06-22T04:39:06;18.50;99.90
9043;DHT22;4556;49.150;8.808;2023-06-22T04:41:35;18.50;99.90
9043;DHT22;4556;49.150;8.808;2023-06-22T04:44:09;18.60;99.90
9043;DHT22;4556;49.150;8.808;2023-06-22T04:46:36;18.60;99.90
9043;DHT22;4556;49.150;8.808;2023-06-22T04:49:07;18.70;99.90
9043;DHT22;4556;49.150;8.808;2023-06-22T04:51:39;18.80;99.90
9043;DHT22;4556;49.150;8.808;2023-06-22T04:54:07;18.90;99.90
9043;DHT22;4556;49.150;8.808;2023-06-22T04:56:35;19.00;99.90
9043;DHT22;4556;49.150;8.808;2023-06-22T04:59:02;19.10;99.90
9043;DHT22;4556;49.150;8.808;2023-06-22T05:01:29;19.20;99.90
9043;DHT22;4556;49.150;8.808;2023-06-22T05:03:57;19.20;99.90
9043;DHT22;4556;49.150;8.808;2023-06-22T05:06:27;19.30;99.90
9043;DHT22;4556;49.150;8.808;2023-06-22T05:08:57;19.50;99.90
9043;DHT22;4556;49.150;8.808;2023-06-22T05:11:25;19.50;99.90
9043;DHT22;4556;49.150;8.808;2023-06-22T05:13:52;19.70;99.90
9043;DHT22;4556;49.150;8.808;2023-06-22T05:16:19;19.70;99.90
9043;DHT22;4556;49.150;8.808;2023-06-22T05:18:50;19.90;99.90
9043;DHT22;4556;49.150;8.808;2023-06-22T05:21:18;20.00;99.90
9043;DHT22;4556;49.150;8.808;2023-06-22T05:23:45;20.20;99.90
9043;DHT22;4556;49.150;8.808;2023-06-22T05:26:14;20.30;99.90
9043;DHT22;4556;49.150;8.808;2023-06-22T05:28:41;20.40;99.90
9043;DHT22;4556;49.150;8.808;2023-06-22T05:31:11;20.50;99.90
9043;DHT22;4556;49.150;8.808;2023-06-22T05:33:38;20.70;99.90
9043;DHT22;4556;49.150;8.808;2023-06-22T05:36:05;20.80;99.90
9043;DHT22;4556;49.150;8.808;2023-06-22T05:38:33;20.90;99.90
9043;DHT22;4556;49.150;8.808;2023-06-22T05:41:00;21.10;99.90
9043;DHT22;4556;49.150;8.808;2023-06-22T05:43:29;21.10;99.90
9043;DHT22;4556;49.150;8.808;2023-06-22T05:45:56;21.10;99.90
9043;DHT22;4556;49.150;8.808;2023-06-22T05:48:23;21.20;99.90
9043;DHT22;4556;49.150;8.808;2023-06-22T05:50:50;21.20;99.90
9043;DHT22;4556;49.150;8.808;2023-06-22T05:53:17;21.20;99.90
9043;DHT22;4556;49.150;8.808;2023-06-22T05:55:44;21.40;99.90
9043;DHT22;4556;49.150;8.808;2023-06-22T05:58:12;21.30;99.90
9043;DHT22;4556;49.150;8.808;2023-06-22T06:00:42;21.30;99.90
9043;DHT22;4556;49.150;8.808;2023-06-22T06:03:10;21.40;99.90
9043;DHT22;4556;49.150;8.808;2023-06-22T06:05:37;21.50;99.90
9043;DHT22;4556;49.150;8.808;2023-06-22T06:08:05;21.70;99.90
9043;DHT22;4556;49.150;8.808;2023-06-22T06:10:33;21.80;99.90
9043;DHT22;4556;49.150;8.808;2023-06-22T06:13:00;22.00;99.90
9043;DHT22;4556;49.150;8.808;2023-06-22T06:15:29;22.00;99.90
9043;DHT22;4556;49.150;8.808;2023-06-22T06:17:59;22.00;99.90
9043;DHT22;4556;49.150;8.808;2023-06-22T06:20:27;22.10;99.90
9043;DHT22;4556;49.150;8.808;2023-06-22T06:22:54;22.20;99.90
9043;DHT22;4556;49.150;8.808;2023-06-22T06:25:22;22.30;99.90
9043;DHT22;4556;49.150;8.808;2023-06-22T06:27:51;22.30;99.90
9043;DHT22;4556;49.150;8.808;2023-06-22T06:30:20;22.40;99.90
9043;DHT22;4556;49.150;8.808;2023-06-22T06:32:49;22.60;99.90
9043;DHT22;4556;49.150;8.808;2023-06-22T06:35:18;22.90;99.90
9043;DHT22;4556;49.150;8.808;2023-06-22T06:37:47;23.10;99.90
9043;DHT22;4556;49.150;8.808;2023-06-22T06:40:17;23.20;99.90
9043;DHT22;4556;49.150;8.808;2023-06-22T06:42:46;23.40;99.90
9043;DHT22;4556;49.150;8.808;2023-06-22T06:45:15;23.40;99.90
9043;DHT22;4556;49.150;8.808;2023-06-22T06:47:43;23.40;99.90
9043;DHT22;4556;49.150;8.808;2023-06-22T06:50:10;23.30;99.90
9043;DHT22;4556;49.150;8.808;2023-06-22T06:52:39;23.20;99.90
9043;DHT22;4556;49.150;8.808;2023-06-22T06:55:08;23.20;99.90
9043;DHT22;4556;49.150;8.808;2023-06-22T06:57:37;23.20;99.90
9043;DHT22;4556;49.150;8.808;2023-06-22T07:00:08;23.50;99.90
9043;DHT22;4556;49.150;8.808;2023-06-22T07:02:38;23.60;99.90
9043;DHT22;4556;49.150;8.808;2023-06-22T07:05:05;23.80;99.90
9043;DHT22;4556;49.150;8.808;2023-06-22T07:07:33;23.80;99.90
9043;DHT22;4556;49.150;8.808;2023-06-22T07:10:02;23.90;99.90
9043;DHT22;4556;49.150;8.808;2023-06-22T07:12:30;23.90;99.90
9043;DHT22;4556;49.150;8.808;2023-06-22T07:15:04;24.00;99.90
9043;DHT22;4556;49.150;8.808;2023-06-22T07:17:33;24.30;99.90
9043;DHT22;4556;49.150;8.808;2023-06-22T07:20:00;24.50;99.90
9043;DHT22;4556;49.150;8.808;2023-06-22T07:22:29;24.60;99.90
9043;DHT22;4556;49.150;8.808;2023-06-22T07:24:56;24.60;99.90
9043;DHT22;4556;49.150;8.808;2023-06-22T07:27:25;24.50;99.90
9043;DHT22;4556;49.150;8.808;2023-06-22T07:29:52;24.70;99.90
9043;DHT22;4556;49.150;8.808;2023-06-22T07:32:20;25.00;99.90
9043;DHT22;4556;49.150;8.808;2023-06-22T07:34:47;25.20;99.90
9043;DHT22;4556;49.150;8.808;2023-06-22T07:37:14;25.20;99.90
9043;DHT22;4556;49.150;8.808;2023-06-22T07:39:42;25.30;99.90
9043;DHT22;4556;49.150;8.808;2023-06-22T07:42:09;25.20;99.90
9043;DHT22;4556;49.150;8.808;2023-06-22T07:44:37;25.30;99.90
9043;DHT22;4556;49.150;8.808;2023-06-22T07:47:04;25.40;99.90
9043;DHT22;4556;49.150;8.808;2023-06-22T07:49:32;25.40;99.90
9043;DHT22;4556;49.150;8.808;2023-06-22T07:51:59;25.60;99.90
9043;DHT22;4556;49.150;8.808;2023-06-22T07:54:29;25.60;99.90
9043;DHT22;4556;49.150;8.808;2023-06-22T07:56:56;26.00;99.90
9043;DHT22;4556;49.150;8.808;2023-06-22T07:59:23;26.10;99.90
9043;DHT22;4556;49.150;8.808;2023-06-22T08:01:52;26.20;99.90
9043;DHT22;4556;49.150;8.808;2023-06-22T08:04:20;26.30;99.90
9043;DHT22;4556;49.150;8.808;2023-06-22T08:06:47;26.30;99.90
9043;DHT22;4556;49.150;8.808;2023-06-22T08:09:14;26.30;99.90
9043;DHT22;4556;49.150;8.808;2023-06-22T08:11:41;26.10;99.90
9043;DHT22;4556;49.150;8.808;2023-06-22T08:14:08;26.00;99.90
9043;DHT22;4556;49.150;8.808;2023-06-22T08:16:35;26.10;99.90
9043;DHT22;4556;49.150;8.808;2023-06-22T08:19:04;26.50;99.90
9043;DHT22;4556;49.150;8.808;2023-06-22T08:21:31;26.50;99.90
9043;DHT22;4556;49.150;8.808;2023-06-22T08:23:58;26.80;99.90
9043;DHT22;4556;49.150;8.808;2023-06-22T08:26:25;27.10;99.90
9043;DHT22;4556;49.150;8.808;2023-06-22T08:28:52;27.20;99.90
9043;DHT22;4556;49.150;8.808;2023-06-22T08:31:20;27.30;99.90
9043;DHT22;4556;49.150;8.808;2023-06-22T08:33:47;27.50;99.90
9043;DHT22;4556;49.150;8.808;2023-06-22T08:36:15;27.60;99.90
9043;DHT22;4556;49.150;8.808;2023-06-22T08:38:42;27.70;99.90
9043;DHT22;4556;49.150;8.808;2023-06-22T08:41:10;27.60;99.90
9043;DHT22;4556;49.150;8.808;2023-06-22T08:43:37;27.80;99.90
9043;DHT22;4556;49.150;8.808;2023-06-22T08:46:03;27.90;99.90
9043;DHT22;4556;49.150;8.808;2023-06-22T08:48:31;28.00;99.90
9043;DHT22;4556;49.150;8.808;2023-06-22T08:50:57;28.20;99.90
9043;DHT22;4556;49.150;8.808;2023-06-22T08:53:26;28.20;99.90
9043;DHT22;4556;49.150;8.808;2023-06-22T08:55:54;28.00;99.90
9043;DHT22;4556;49.150;8.808;2023-06-22T08:58:21;27.70;99.90
9043;DHT22;4556;49.150;8.808;2023-06-22T09:00:49;27.60;99.90
9043;DHT22;4556;49.150;8.808;2023-06-22T09:03:17;27.40;99.90
9043;DHT22;4556;49.150;8.808;2023-06-22T09:05:46;27.20;99.90
9043;DHT22;4556;49.150;8.808;2023-06-22T09:08:13;27.10;99.90
9043;DHT22;4556;49.150;8.808;2023-06-22T09:10:41;27.10;99.90
9043;DHT22;4556;49.150;8.808;2023-06-22T09:13:08;27.20;99.90
9043;DHT22;4556;49.150;8.808;2023-06-22T09:15:38;27.20;99.90
9043;DHT22;4556;49.150;8.808;2023-06-22T09:18:06;27.30;99.90
9043;DHT22;4556;49.150;8.808;2023-06-22T09:20:36;27.30;99.90
9043;DHT22;4556;49.150;8.808;2023-06-22T09:23:03;27.40;99.90
9043;DHT22;4556;49.150;8.808;2023-06-22T09:25:31;27.50;99.90
9043;DHT22;4556;49.150;8.808;2023-06-22T09:28:00;27.40;99.90
9043;DHT22;4556;49.150;8.808;2023-06-22T09:30:27;27.60;99.90
9043;DHT22;4556;49.150;8.808;2023-06-22T09:32:54;27.70;99.90
9043;DHT22;4556;49.150;8.808;2023-06-22T09:35:21;28.00;99.90
9043;DHT22;4556;49.150;8.808;2023-06-22T09:37:48;28.10;99.90
9043;DHT22;4556;49.150;8.808;2023-06-22T09:40:15;28.40;99.90
9043;DHT22;4556;49.150;8.808;2023-06-22T09:42:42;28.70;99.90
9043;DHT22;4556;49.150;8.808;2023-06-22T09:45:11;28.90;99.90
9043;DHT22;4556;49.150;8.808;2023-06-22T09:47:38;29.10;99.90
9043;DHT22;4556;49.150;8.808;2023-06-22T09:50:06;29.10;99.90
9043;DHT22;4556;49.150;8.808;2023-06-22T09:52:34;29.20;99.90
9043;DHT22;4556;49.150;8.808;2023-06-22T09:55:01;29.30;99.90
9043;DHT22;4556;49.150;8.808;2023-06-22T09:57:29;29.20;99.90
9043;DHT22;4556;49.150;8.808;2023-06-22T09:59:55;29.00;99.90
9043;DHT22;4556;49.150;8.808;2023-06-22T10:02:24;28.90;99.90
9043;DHT22;4556;49.150;8.808;2023-06-22T10:04:51;28.90;99.90
9043;DHT22;4556;49.150;8.808;2023-06-22T10:07:18;28.70;99.90
9043;DHT22;4556;49.150;8.808;2023-06-22T10:09:45;28.50;99.90
9043;DHT22;4556;49.150;8.808;2023-06-22T10:12:12;28.50;99.90
9043;DHT22;4556;49.150;8.808;2023-06-22T10:14:39;28.50;99.90
9043;DHT22;4556;49.150;8.808;2023-06-22T10:17:06;28.60;99.90
9043;DHT22;4556;49.150;8.808;2023-06-22T10:19:35;28.90;99.90
9043;DHT22;4556;49.150;8.808;2023-06-22T10:22:04;28.90;99.90
9043;DHT22;4556;49.150;8.808;2023-06-22T10:24:31;29.00;99.90
9043;DHT22;4556;49.150;8.808;2023-06-22T10:26:59;29.00;99.90
9043;DHT22;4556;49.150;8.808;2023-06-22T10:29:26;29.00;99.90
9043;DHT22;4556;49.150;8.808;2023-06-22T10:31:53;28.90;99.90
9043;DHT22;4556;49.150;8.808;2023-06-22T10:34:20;28.70;99.90
9043;DHT22;4556;49.150;8.808;2023-06-22T10:36:48;28.60;99.90
9043;DHT22;4556;49.150;8.808;2023-06-22T10:39:15;28.40;99.90
9043;DHT22;4556;49.150;8.808;2023-06-22T10:41:43;28.40;99.90
9043;DHT22;4556;49.150;8.808;2023-06-22T10:44:10;28.40;99.90
9043;DHT22;4556;49.150;8.808;2023-06-22T10:46:37;28.50;99.90
9043;DHT22;4556;49.150;8.808;2023-06-22T10:49:13;28.50;99.90
9043;DHT22;4556;49.150;8.808;2023-06-22T10:51:41;28.50;99.90
9043;DHT22;4556;49.150;8.808;2023-06-22T10:54:09;28.50;99.90
9043;DHT22;4556;49.150;8.808;2023-06-22T10:56:39;28.50;99.90
9043;DHT22;4556;49.150;8.808;2023-06-22T10:59:07;28.60;99.90
9043;DHT22;4556;49.150;8.808;2023-06-22T11:01:34;28.60;99.90
9043;DHT22;4556;49.150;8.808;2023-06-22T11:04:02;28.50;99.90
9043;DHT22;4556;49.150;8.808;2023-06-22T11:06:29;28.50;99.90
9043;DHT22;4556;49.150;8.808;2023-06-22T11:08:56;28.50;99.90
9043;DHT22;4556;49.150;8.808;2023-06-22T11:11:25;28.50;99.90
9043;DHT22;4556;49.150;8.808;2023-06-22T11:13:53;28.50;99.90
9043;DHT22;4556;49.150;8.808;2023-06-22T11:16:20;28.50;99.90
9043;DHT22;4556;49.150;8.808;2023-06-22T11:18:47;28.50;99.90
9043;DHT22;4556;49.150;8.808;2023-06-22T11:21:14;28.60;99.90
9043;DHT22;4556;49.150;8.808;2023-06-22T11:23:42;28.80;99.90
9043;DHT22;4556;49.150;8.808;2023-06-22T11:26:09;28.90;99.90
9043;DHT22;4556;49.150;8.808;2023-06-22T11:28:37;28.90;99.90
9043;DHT22;4556;49.150;8.808;2023-06-22T11:31:05;28.90;99.90
9043;DHT22;4556;49.150;8.808;2023-06-22T11:33:32;28.90;99.90
9043;DHT22;4556;49.150;8.808;2023-06-22T11:35:59;28.80;99.90
9043;DHT22;4556;49.150;8.808;2023-06-22T11:38:26;28.80;99.90
9043;DHT22;4556;49.150;8.808;2023-06-22T11:40:53;28.80;99.90
9043;DHT22;4556;49.150;8.808;2023-06-22T11:43:20;28.80;99.90
9043;DHT22;4556;49.150;8.808;2023-06-22T11:45:49;28.80;99.90
9043;DHT22;4556;49.150;8.808;2023-06-22T11:48:16;29.00;99.90
9043;DHT22;4556;49.150;8.808;2023-06-22T11:50:43;29.10;99.90
9043;DHT22;4556;49.150;8.808;2023-06-22T11:53:10;29.30;99.90
9043;DHT22;4556;49.150;8.808;2023-06-22T11:55:37;29.30;99.90
9043;DHT22;4556;49.150;8.808;2023-06-22T11:58:04;29.30;99.90
9043;DHT22;4556;49.150;8.808;2023-06-22T12:00:32;29.30;99.90
9043;DHT22;4556;49.150;8.808;2023-06-22T12:03:00;29.30;99.90
9043;DHT22;4556;49.150;8.808;2023-06-22T12:05:27;29.20;99.90
9043;DHT22;4556;49.150;8.808;2023-06-22T12:07:55;28.90;99.90
9043;DHT22;4556;49.150;8.808;2023-06-22T12:10:22;28.80;99.90
9043;DHT22;4556;49.150;8.808;2023-06-22T12:12:50;28.80;99.90
9043;DHT22;4556;49.150;8.808;2023-06-22T12:15:17;28.70;99.90
9043;DHT22;4556;49.150;8.808;2023-06-22T12:17:44;28.70;99.90
9043;DHT22;4556;49.150;8.808;2023-06-22T12:20:13;28.60;99.90
9043;DHT22;4556;49.150;8.808;2023-06-22T12:22:42;28.80;99.90
9043;DHT22;4556;49.150;8.808;2023-06-22T12:25:09;28.90;99.90
9043;DHT22;4556;49.150;8.808;2023-06-22T12:27:44;28.90;99.90
9043;DHT22;4556;49.150;8.808;2023-06-22T12:30:11;29.00;99.90
9043;DHT22;4556;49.150;8.808;2023-06-22T12:32:38;29.10;99.90
9043;DHT22;4556;49.150;8.808;2023-06-22T12:35:05;29.10;99.90
9043;DHT22;4556;49.150;8.808;2023-06-22T12:37:40;29.20;99.90
9043;DHT22;4556;49.150;8.808;2023-06-22T12:40:10;29.20;99.90
9043;DHT22;4556;49.150;8.808;2023-06-22T12:42:37;29.40;99.90
9043;DHT22;4556;49.150;8.808;2023-06-22T12:45:05;29.40;99.90
9043;DHT22;4556;49.150;8.808;2023-06-22T12:47:32;29.30;99.90
9043;DHT22;4556;49.150;8.808;2023-06-22T12:49:59;29.40;99.90
9043;DHT22;4556;49.150;8.808;2023-06-22T12:52:26;29.60;99.90
9043;DHT22;4556;49.150;8.808;2023-06-22T12:54:55;29.80;99.90
9043;DHT22;4556;49.150;8.808;2023-06-22T12:57:22;29.90;99.90
9043;DHT22;4556;49.150;8.808;2023-06-22T12:59:51;29.90;99.90
9043;DHT22;4556;49.150;8.808;2023-06-22T13:02:23;29.90;99.90
9043;DHT22;4556;49.150;8.808;2023-06-22T13:04:50;29.90;99.90
9043;DHT22;4556;49.150;8.808;2023-06-22T13:07:17;29.90;99.90
9043;DHT22;4556;49.150;8.808;2023-06-22T13:09:44;29.90;99.90
9043;DHT22;4556;49.150;8.808;2023-06-22T13:12:13;29.80;99.90
9043;DHT22;4556;49.150;8.808;2023-06-22T13:14:40;30.00;99.90
9043;DHT22;4556;49.150;8.808;2023-06-22T13:17:08;30.00;99.90
9043;DHT22;4556;49.150;8.808;2023-06-22T13:19:35;30.10;99.90
9043;DHT22;4556;49.150;8.808;2023-06-22T13:22:03;30.10;99.90
9043;DHT22;4556;49.150;8.808;2023-06-22T13:24:32;30.40;99.90
9043;DHT22;4556;49.150;8.808;2023-06-22T13:26:59;30.60;99.90
9043;DHT22;4556;49.150;8.808;2023-06-22T13:29:28;30.70;99.90
9043;DHT22;4556;49.150;8.808;2023-06-22T13:31:55;30.80;99.90
9043;DHT22;4556;49.150;8.808;2023-06-22T13:34:22;30.70;99.90
9043;DHT22;4556;49.150;8.808;2023-06-22T13:36:49;30.70;99.90
9043;DHT22;4556;49.150;8.808;2023-06-22T13:39:16;30.60;99.90
9043;DHT22;4556;49.150;8.808;2023-06-22T13:41:43;30.50;99.90
9043;DHT22;4556;49.150;8.808;2023-06-22T13:44:11;30.50;99.90
9043;DHT22;4556;49.150;8.808;2023-06-22T13:46:39;30.40;99.90
9043;DHT22;4556;49.150;8.808;2023-06-22T13:49:06;30.60;99.90
9043;DHT22;4556;49.150;8.808;2023-06-22T13:51:33;30.80;99.90
9043;DHT22;4556;49.150;8.808;2023-06-22T13:54:00;30.80;99.90
9043;DHT22;4556;49.150;8.808;2023-06-22T13:56:27;30.90;99.90
9043;DHT22;4556;49.150;8.808;2023-06-22T13:58:54;31.00;99.90
9043;DHT22;4556;49.150;8.808;2023-06-22T14:01:21;30.90;99.90
9043;DHT22;4556;49.150;8.808;2023-06-22T14:03:50;30.90;99.90
9043;DHT22;4556;49.150;8.808;2023-06-22T14:06:17;30.80;99.90
9043;DHT22;4556;49.150;8.808;2023-06-22T14:08:44;30.80;99.90
9043;DHT22;4556;49.150;8.808;2023-06-22T14:11:11;30.70;99.90
9043;DHT22;4556;49.150;8.808;2023-06-22T14:13:39;30.80;99.90
9043;DHT22;4556;49.150;8.808;2023-06-22T14:16:07;30.80;99.90
9043;DHT22;4556;49.150;8.808;2023-06-22T14:18:36;30.80;99.90
9043;DHT22;4556;49.150;8.808;2023-06-22T14:21:07;30.80;99.90
9043;DHT22;4556;49.150;8.808;2023-06-22T14:23:34;30.80;99.90
9043;DHT22;4556;49.150;8.808;2023-06-22T14:26:03;30.60;99.90
9043;DHT22;4556;49.150;8.808;2023-06-22T14:28:29;30.40;99.90
9043;DHT22;4556;49.150;8.808;2023-06-22T14:30:57;30.30;99.90
9043;DHT22;4556;49.150;8.808;2023-06-22T14:33:24;30.20;99.90
9043;DHT22;4556;49.150;8.808;2023-06-22T14:35:51;30.10;99.90
9043;DHT22;4556;49.150;8.808;2023-06-22T14:38:19;30.00;99.90
9043;DHT22;4556;49.150;8.808;2023-06-22T14:40:47;29.90;99.90
9043;DHT22;4556;49.150;8.808;2023-06-22T14:43:13;29.80;99.90
9043;DHT22;4556;49.150;8.808;2023-06-22T14:45:41;29.70;99.90
9043;DHT22;4556;49.150;8.808;2023-06-22T14:48:09;29.70;99.90
9043;DHT22;4556;49.150;8.808;2023-06-22T14:50:37;29.50;99.90
9043;DHT22;4556;49.150;8.808;2023-06-22T14:53:04;29.40;99.90
9043;DHT22;4556;49.150;8.808;2023-06-22T14:55:33;29.50;99.90
9043;DHT22;4556;49.150;8.808;2023-06-22T14:58:00;29.40;99.90
9043;DHT22;4556;49.150;8.808;2023-06-22T15:00:27;29.40;99.90
9043;DHT22;4556;49.150;8.808;2023-06-22T15:02:54;29.40;99.90
9043;DHT22;4556;49.150;8.808;2023-06-22T15:05:20;29.30;99.90
9043;DHT22;4556;49.150;8.808;2023-06-22T15:07:49;29.30;99.90
9043;DHT22;4556;49.150;8.808;2023-06-22T15:10:16;29.30;99.90
9043;DHT22;4556;49.150;8.808;2023-06-22T15:12:45;29.30;99.90
9043;DHT22;4556;49.150;8.808;2023-06-22T15:15:12;29.30;99.90
9043;DHT22;4556;49.150;8.808;2023-06-22T15:17:39;29.40;99.90
9043;DHT22;4556;49.150;8.808;2023-06-22T15:20:07;29.40;99.90
9043;DHT22;4556;49.150;8.808;2023-06-22T15:22:35;29.40;99.90
9043;DHT22;4556;49.150;8.808;2023-06-22T15:25:03;29.50;99.90
9043;DHT22;4556;49.150;8.808;2023-06-22T15:27:30;29.60;99.90
9043;DHT22;4556;49.150;8.808;2023-06-22T15:29:58;29.60;99.90
9043;DHT22;4556;49.150;8.808;2023-06-22T15:32:25;29.70;99.90
9043;DHT22;4556;49.150;8.808;2023-06-22T15:34:54;29.60;99.90
9043;DHT22;4556;49.150;8.808;2023-06-22T15:37:21;29.70;99.90
9043;DHT22;4556;49.150;8.808;2023-06-22T15:39:48;29.70;99.90
9043;DHT22;4556;49.150;8.808;2023-06-22T15:42:16;29.70;99.90
9043;DHT22;4556;49.150;8.808;2023-06-22T15:44:43;29.80;99.90
9043;DHT22;4556;49.150;8.808;2023-06-22T15:47:12;29.90;99.90
9043;DHT22;4556;49.150;8.808;2023-06-22T15:49:39;30.00;99.90
9043;DHT22;4556;49.150;8.808;2023-06-22T15:52:06;30.00;99.90
9043;DHT22;4556;49.150;8.808;2023-06-22T15:54:33;29.90;99.90
9043;DHT22;4556;49.150;8.808;2023-06-22T15:57:00;29.80;99.90
9043;DHT22;4556;49.150;8.808;2023-06-22T15:59:28;29.80;99.90
9043;DHT22;4556;49.150;8.808;2023-06-22T16:01:55;29.70;99.90
9043;DHT22;4556;49.150;8.808;2023-06-22T16:04:23;29.80;99.90
9043;DHT22;4556;49.150;8.808;2023-06-22T16:06:50;29.90;99.90
9043;DHT22;4556;49.150;8.808;2023-06-22T16:09:17;30.00;99.90